Buoy 44768

sailwx.info

Track history (hours):
 
Tides and Currents Weather Stations Pressure Air Temp Water Temp Dewpoint Dewpoint Depression Visibility Wind Speed Wind Dir Waves Ship Positions

Drifting buoy 44768

Last reported at 2018-Aug-16 08:00 UTC. Time now 2018-Aug-16 08:45 UTC.
Position N 39°42' W 042°29'.

Water temperature 25.4 ° C

Date/timePositionNaut miles runAvg speedWind from/ knotsBaromVisibWave heightAir tempDewpointWater temp
2018-Aug-16 08:00N 39°42' W 042°29'2 1.5 25.4
2018-Aug-16 07:00N 39°41' W 042°31'2 1.5 25.4
2018-Aug-16 06:00N 39°40' W 042°32'2 1.8 25.4
2018-Aug-16 05:00N 39°38' W 042°34'2 1.5 25.3
2018-Aug-16 04:00N 39°37' W 042°35'2 1.8 25.3
2018-Aug-16 03:00N 39°36' W 042°37'2 1.5 25.3
2018-Aug-16 02:00N 39°35' W 042°38'1 0.9 25.3
2018-Aug-16 01:00N 39°35' W 042°40'2 1.9 25.4
2018-Aug-16 00:00N 39°35' W 042°42'1 1.4 25.7
2018-Aug-15 23:00N 39°35' W 042°44'2 1.8 25.7
2018-Aug-15 22:00N 39°35' W 042°46'2 2.3 26.1
2018-Aug-15 21:00N 39°35' W 042°49'2 1.9 26.2
2018-Aug-15 20:00N 39°35' W 042°52'2 2.3 26.3
2018-Aug-15 19:00N 39°35' W 042°55'2 1.9 26.4
2018-Aug-15 18:00N 39°36' W 042°57'2 1.5 26.4
2018-Aug-15 17:00N 39°37' W 042°59'2 1.9 26.4
2018-Aug-15 16:00N 39°37' W 043°01'2 2.2 26.4
2018-Aug-15 15:00N 39°38' W 043°04'2 1.9 26.4
2018-Aug-15 14:00N 39°39' W 043°06'2 1.8 26.4
2018-Aug-15 13:00N 39°40' W 043°08'2 2.2 26.5
2018-Aug-15 12:00N 39°41' W 043°10'2 1.8 26.6
2018-Aug-15 11:00N 39°43' W 043°12'2 2.2 26.6
2018-Aug-15 10:00N 39°44' W 043°14'2 1.8 26.6
2018-Aug-15 09:00N 39°45' W 043°16'2 2.2 26.6
2018-Aug-15 08:00N 39°46' W 043°19'2 2.3 26.6
2018-Aug-15 07:00N 39°48' W 043°20'2 1.5 26.7
2018-Aug-15 06:00N 39°49' W 043°22'2 1.8 26.7
2018-Aug-15 05:00N 39°50' W 043°23'2 2.3 26.7
2018-Aug-15 04:00N 39°52' W 043°25'2 1.8 26.7
2018-Aug-15 03:00N 39°53' W 043°27'2 1.8 26.7
2018-Aug-15 02:00N 39°55' W 043°29'2 1.5 26.8
2018-Aug-15 01:00N 39°56' W 043°30'2 2.0 26.8
2018-Aug-15 00:00N 39°58' W 043°31'2 1.5 26.8
2018-Aug-14 23:00N 39°59' W 043°32'2 1.5 26.8
2018-Aug-14 22:00N 40°00' W 043°34'2 2.0 26.8
2018-Aug-14 21:00N 40°02' W 043°35'2 1.5 26.9
2018-Aug-14 20:00N 40°03' W 043°36'2 1.5 26.9
2018-Aug-14 19:00N 40°04' W 043°37'2 1.5 27.0
2018-Aug-14 18:00N 40°05' W 043°38'3 1.5 27.1
2018-Aug-14 16:00N 40°08' W 043°41'1 1.3 27.0
2018-Aug-14 15:00N 40°09' W 043°41'2 1.5 26.8
2018-Aug-14 14:00N 40°10' W 043°43'3 1.4 26.7
2018-Aug-14 12:00N 40°13' W 043°44'1 0.8 26.3
2018-Aug-14 11:00N 40°13' W 043°45'2 1.1 26.2
2018-Aug-14 09:00N 40°15' W 043°47'0 0.0 25.8
2018-Aug-14 08:00N 40°15' W 043°47'1 0.6 25.9
2018-Aug-14 07:00N 40°16' W 043°47'1 0.8 25.9
2018-Aug-14 06:00N 40°16' W 043°47'1 0.6 25.9
2018-Aug-14 05:00N 40°17' W 043°47'1 0.8 25.9
2018-Aug-14 04:00N 40°17' W 043°47'1 1.2 26.0
2018-Aug-14 03:00N 40°19' W 043°47'1 0.8 26.0
2018-Aug-14 02:00N 40°19' W 043°47'1 0.6 26.1
2018-Aug-14 01:00N 40°20' W 043°47'1 0.8 26.2
2018-Aug-14 00:00N 40°20' W 043°48'0 0.5 26.1
2018-Aug-13 23:00N 40°20' W 043°49'0 0.5 26.2
2018-Aug-13 22:00N 40°20' W 043°49'1 0.8 26.3
2018-Aug-13 21:00N 40°21' W 043°50'0 0.0 26.4
2018-Aug-13 20:00N 40°21' W 043°50'0 0.0 26.2
2018-Aug-13 19:00N 40°21' W 043°50'0 0.5 26.2
2018-Aug-13 18:00N 40°21' W 043°49'0 0.0 26.3
2018-Aug-13 17:00N 40°21' W 043°49'1 0.6 26.5
2018-Aug-13 16:00N 40°22' W 043°49'0 0.5 26.6
2018-Aug-13 15:00N 40°22' W 043°50'1 0.6 26.6
2018-Aug-13 14:00N 40°22' W 043°50'1 0.8 26.5
2018-Aug-13 13:00N 40°23' W 043°50'1 0.6 26.0
2018-Aug-13 12:00N 40°23' W 043°50'0 0.5 25.8
2018-Aug-13 11:00N 40°23' W 043°51'1 0.8 25.6
2018-Aug-13 10:00N 40°24' W 043°52'1 0.8 25.6
2018-Aug-13 09:00N 40°25' W 043°52'1 0.6 25.6
2018-Aug-13 08:00N 40°25' W 043°52'1 0.8 25.5
2018-Aug-13 07:00N 40°26' W 043°53'1 0.8 25.5
2018-Aug-13 06:00N 40°26' W 043°53'1 0.8 25.7
2018-Aug-13 05:00N 40°27' W 043°54'1 1.1 26.0
2018-Aug-13 04:00N 40°28' W 043°55'2 1.1 26.2
2018-Aug-13 02:00N 40°29' W 043°57'1 1.3 26.4
2018-Aug-13 01:00N 40°31' W 043°58'1 0.8 26.4
2018-Aug-13 00:00N 40°31' W 043°58'1 1.1 26.5
2018-Aug-12 23:00N 40°32' W 043°59'2 1.5 26.5
2018-Aug-12 22:00N 40°33' W 044°01'1 0.8 26.6
2018-Aug-12 21:00N 40°34' W 044°01'1 1.1 26.7
2018-Aug-12 20:00N 40°34' W 044°02'1 1.1 26.8
2018-Aug-12 19:00N 40°35' W 044°04'1 0.8 26.8
2018-Aug-12 18:00N 40°35' W 044°04'1 1.1 26.9
2018-Aug-12 17:00N 40°36' W 044°05'1 0.8 26.9
2018-Aug-12 16:00N 40°37' W 044°06'1 0.9 26.9
2018-Aug-12 15:00N 40°37' W 044°07'1 0.8 26.8
2018-Aug-12 14:00N 40°37' W 044°08'0 0.5 26.8
2018-Aug-12 13:00N 40°37' W 044°08'0 0.5 26.7
2018-Aug-12 12:00N 40°37' W 044°09'1 0.8 26.7
2018-Aug-12 11:00N 40°38' W 044°10'0 0.5 26.6
2018-Aug-12 10:00N 40°38' W 044°10'1 0.8 26.6
2018-Aug-12 09:00N 40°38' W 044°11'1 0.9 26.6
2018-Aug-12 08:00N 40°38' W 044°12'0 0.5 26.6
2018-Aug-12 07:00N 40°38' W 044°13'0 0.5 26.6
2018-Aug-12 06:00N 40°38' W 044°13'1 0.8 26.6
2018-Aug-12 05:00N 40°39' W 044°14'0 0.5 26.6
2018-Aug-12 04:00N 40°39' W 044°14'1 1.1 26.6
2018-Aug-12 03:00N 40°38' W 044°16'0 0.5 26.6
2018-Aug-12 02:00N 40°38' W 044°16'1 1.1 26.6
2018-Aug-12 01:00N 40°38' W 044°17'1 0.8 26.7
2018-Aug-12 00:00N 40°37' W 044°18'1 0.8 26.7
2018-Aug-11 23:00N 40°37' W 044°19'0 0.5 26.7
2018-Aug-11 22:00N 40°37' W 044°19'1 1.3 26.8
2018-Aug-11 21:00N 40°35' W 044°20'1 0.8 26.8
2018-Aug-11 20:00N 40°35' W 044°20'1 1.2 26.9
2018-Aug-11 19:00N 40°34' W 044°20'1 0.8 26.9
2018-Aug-11 18:00N 40°33' W 044°21'2 1.9 26.9
2018-Aug-11 17:00N 40°31' W 044°22'1 1.3 26.9
2018-Aug-11 16:00N 40°30' W 044°22'1 1.3 26.9
2018-Aug-11 15:00N 40°29' W 044°23'2 1.8 26.8
2018-Aug-11 14:00N 40°27' W 044°23'2 1.9 26.8
2018-Aug-11 13:00N 40°25' W 044°23'2 1.8 26.7
2018-Aug-11 12:00N 40°23' W 044°23'2 1.9 26.6
2018-Aug-11 11:00N 40°22' W 044°23'2 1.8 26.6
2018-Aug-11 10:00N 40°20' W 044°23'2 1.8 26.5
2018-Aug-11 09:00N 40°18' W 044°23'2 2.4 26.6
2018-Aug-11 08:00N 40°16' W 044°23'2 1.9 26.6
2018-Aug-11 07:00N 40°14' W 044°22'2 1.8 26.6
2018-Aug-11 06:00N 40°12' W 044°22'2 1.8 26.7
2018-Aug-11 05:00N 40°10' W 044°22'2 2.4 26.8
2018-Aug-11 04:00N 40°08' W 044°22'2 1.9 26.8
2018-Aug-11 03:00N 40°06' W 044°23'2 1.8 26.9
2018-Aug-11 02:00N 40°04' W 044°23'2 2.4 26.9
2018-Aug-11 01:00N 40°02' W 044°23'2 2.4 26.9
2018-Aug-11 00:00N 39°59' W 044°23'2 2.4 27.0
2018-Aug-10 23:00N 39°57' W 044°23'2 1.9 27.1
2018-Aug-10 22:00N 39°55' W 044°24'2 2.4 27.2
2018-Aug-10 21:00N 39°53' W 044°25'2 2.4 27.3
2018-Aug-10 20:00N 39°50' W 044°25'3 3.0 27.4
2018-Aug-10 19:00N 39°47' W 044°25'2 2.4 27.4
2018-Aug-10 18:00N 39°45' W 044°25'5 2.7 27.5
2018-Aug-10 16:00N 39°40' W 044°26'2 2.4 27.0
2018-Aug-10 15:00N 39°37' W 044°26'3 3.0 26.8
2018-Aug-10 14:00N 39°34' W 044°26'3 3.0 26.6
2018-Aug-10 13:00N 39°31' W 044°27'2 2.4 26.5
2018-Aug-10 12:00N 39°29' W 044°27'3 3.0 26.4
2018-Aug-10 11:00N 39°26' W 044°27'2 2.4 26.4
2018-Aug-10 10:00N 39°23' W 044°26'2 2.4 26.3
2018-Aug-10 09:00N 39°21' W 044°27'2 2.4 26.3
2018-Aug-10 08:00N 39°19' W 044°27'2 2.4 26.2
2018-Aug-10 07:00N 39°16' W 044°28'2 2.4 26.2
2018-Aug-10 06:00N 39°14' W 044°28'2 2.4 26.2
2018-Aug-10 05:00N 39°11' W 044°28'2 2.4 26.3
2018-Aug-10 04:00N 39°09' W 044°28'2 2.4 26.2
2018-Aug-10 03:00N 39°07' W 044°29'2 2.4 26.2
2018-Aug-10 02:00N 39°04' W 044°29'3 2.6 26.2
2018-Aug-10 01:00N 39°02' W 044°31'2 2.0 26.2
2018-Aug-10 00:00N 39°00' W 044°32'2 2.4 26.2
2018-Aug-09 23:00N 38°58' W 044°32'2 2.0 26.1
2018-Aug-09 22:00N 38°56' W 044°34'2 2.0 26.1
2018-Aug-09 21:00N 38°54' W 044°35'2 2.3 26.1
2018-Aug-09 20:00N 38°52' W 044°37'2 2.0 26.1
2018-Aug-09 19:00N 38°50' W 044°38'2 1.5 26.1
2018-Aug-09 18:00N 38°49' W 044°39'3 1.5 26.1
2018-Aug-09 16:00N 38°47' W 044°41'2 1.5 26.0
2018-Aug-09 15:00N 38°46' W 044°43'2 2.0 26.0
2018-Aug-09 14:00N 38°46' W 044°46'2 1.5 26.0
2018-Aug-09 13:00N 38°45' W 044°47'2 2.0 26.0
2018-Aug-09 12:00N 38°44' W 044°50'2 1.5 26.1
2018-Aug-09 11:00N 38°44' W 044°52'2 2.3 26.1
2018-Aug-09 10:00N 38°44' W 044°55'2 2.0 26.1
2018-Aug-09 09:00N 38°43' W 044°57'2 2.0 26.1
2018-Aug-09 08:00N 38°43' W 044°59'2 1.9 26.2
2018-Aug-09 07:00N 38°43' W 045°02'2 2.4 26.2
2018-Aug-09 06:00N 38°42' W 045°05'2 1.9 26.3
2018-Aug-09 05:00N 38°42' W 045°07'2 1.5 26.3
2018-Aug-09 04:00N 38°41' W 045°09'2 1.9 26.4
2018-Aug-09 03:00N 38°41' W 045°11'1 1.4 26.4
2018-Aug-09 02:00N 38°41' W 045°13'2 1.5 26.4
2018-Aug-09 01:00N 38°42' W 045°15'2 2.0 26.4
2018-Aug-09 00:00N 38°43' W 045°17'2 1.5 26.5
2018-Aug-08 23:00N 38°43' W 045°19'2 2.0 26.5
2018-Aug-08 22:00N 38°44' W 045°22'4 2.0 26.6
2018-Aug-08 20:00N 38°46' W 045°26'2 2.2 26.6
2018-Aug-08 19:00N 38°47' W 045°28'2 2.0 26.6
2018-Aug-08 18:00N 38°48' W 045°31'2 2.2 26.6
2018-Aug-08 17:00N 38°49' W 045°33'2 2.4 26.5
2018-Aug-08 16:00N 38°50' W 045°36'2 2.2 26.5
2018-Aug-08 15:00N 38°51' W 045°38'2 1.5 26.5
2018-Aug-08 14:00N 38°52' W 045°40'2 2.0 26.5
2018-Aug-08 13:00N 38°52' W 045°43'2 1.5 26.5
2018-Aug-08 12:00N 38°53' W 045°44'2 1.5 26.4
2018-Aug-08 11:00N 38°53' W 045°46'2 1.5 26.4
2018-Aug-08 10:00N 38°54' W 045°48'1 1.1 26.4
2018-Aug-08 09:00N 38°55' W 045°49'1 1.1 26.4
2018-Aug-08 08:00N 38°55' W 045°50'2 1.5 26.4
2018-Aug-08 07:00N 38°56' W 045°52'2 1.8 26.4
2018-Aug-08 06:00N 38°58' W 045°53'2 1.5 26.5
2018-Aug-08 05:00N 38°59' W 045°55'2 1.5 26.5
2018-Aug-08 04:00N 39°00' W 045°56'2 1.5 26.5
2018-Aug-08 03:00N 39°01' W 045°58'2 1.8 26.5
2018-Aug-08 02:00N 39°02' W 045°59'2 1.5 26.5
2018-Aug-08 01:00N 39°02' W 046°01'2 1.8 26.5
2018-Aug-08 00:00N 39°04' W 046°03'1 1.1 26.6
2018-Aug-07 23:00N 39°04' W 046°04'2 2.2 26.6
2018-Aug-07 22:00N 39°05' W 046°07'1 1.4 26.6
2018-Aug-07 21:00N 39°05' W 046°08'2 1.5 26.6
2018-Aug-07 20:00N 39°06' W 046°10'1 1.1 26.6
2018-Aug-07 19:00N 39°07' W 046°11'1 0.9 26.6
2018-Aug-07 18:00N 39°07' W 046°13'1 0.9 26.6
2018-Aug-07 17:00N 39°07' W 046°14'1 0.9 26.5
2018-Aug-07 16:00N 39°07' W 046°15'1 1.1 26.5
2018-Aug-07 15:00N 39°07' W 046°16'0 0.5 26.5
2018-Aug-07 14:00N 39°07' W 046°17'0 0.5 26.5
2018-Aug-07 13:00N 39°07' W 046°17'0 0.5 26.5
2018-Aug-07 12:00N 39°07' W 046°18'1 0.8 26.6
2018-Aug-07 11:00N 39°08' W 046°19'0 0.5 26.7
2018-Aug-07 10:00N 39°08' W 046°19'1 1.1 26.7
2018-Aug-07 09:00N 39°08' W 046°20'0 0.5 26.7
2018-Aug-07 08:00N 39°08' W 046°21'1 0.8 26.7
2018-Aug-07 07:00N 39°09' W 046°22'1 0.8 26.7
2018-Aug-07 06:00N 39°10' W 046°22'1 0.8 26.7
2018-Aug-07 05:00N 39°10' W 046°23'1 0.8 26.7
2018-Aug-07 04:00N 39°11' W 046°23'0 0.5 26.7
2018-Aug-07 03:00N 39°11' W 046°24'1 0.8 26.7
2018-Aug-07 02:00N 39°11' W 046°25'1 1.1 26.7
2018-Aug-07 01:00N 39°12' W 046°26'1 0.9 26.7
2018-Aug-07 00:00N 39°12' W 046°27'1 0.7 26.7
2018-Aug-06 22:00N 39°12' W 046°29'0 0.5 26.8
2018-Aug-06 21:00N 39°12' W 046°29'0 0.5 26.8
2018-Aug-06 20:00N 39°12' W 046°30'0 0.5 26.8
2018-Aug-06 19:00N 39°12' W 046°31'0 0.5 26.8
2018-Aug-06 18:00N 39°12' W 046°31'0 0.5 26.8
2018-Aug-06 17:00N 39°12' W 046°32'1 0.8 26.8
2018-Aug-06 16:00N 39°13' W 046°32'0 0.5 26.8
2018-Aug-06 15:00N 39°13' W 046°33'0 0.5 26.7
2018-Aug-06 14:00N 39°13' W 046°34'0 0.5 26.7
2018-Aug-06 13:00N 39°13' W 046°34'1 1.1 26.7
2018-Aug-06 12:00N 39°12' W 046°35'0 0.5 26.7
2018-Aug-06 11:00N 39°12' W 046°36'1 0.9 26.7
2018-Aug-06 10:00N 39°12' W 046°37'1 1.1 26.7
2018-Aug-06 09:00N 39°11' W 046°38'0 0.5 26.6
2018-Aug-06 08:00N 39°11' W 046°39'   26.6
Track history (hours):
 
Tides and Currents Weather Stations Pressure Air Temp Water Temp Dewpoint Dewpoint Depression Visibility Wind Speed Wind Dir Waves Ship Positions

Drifting buoy 44768

Last reported at 2018-Aug-16 08:00 UTC. Time now 2018-Aug-16 08:45 UTC.
Position N 39°42' W 042°29'.

Water temperature 25.4 ° C

Date/timePositionNaut miles runAvg speedWind from/ knotsBaromVisibWave heightAir tempDewpointWater temp
2018-Aug-16 08:00N 39°42' W 042°29'2 1.5 25.4
2018-Aug-16 07:00N 39°41' W 042°31'2 1.5 25.4
2018-Aug-16 06:00N 39°40' W 042°32'2 1.8 25.4
2018-Aug-16 05:00N 39°38' W 042°34'2 1.5 25.3
2018-Aug-16 04:00N 39°37' W 042°35'2 1.8 25.3
2018-Aug-16 03:00N 39°36' W 042°37'2 1.5 25.3
2018-Aug-16 02:00N 39°35' W 042°38'1 0.9 25.3
2018-Aug-16 01:00N 39°35' W 042°40'2 1.9 25.4
2018-Aug-16 00:00N 39°35' W 042°42'1 1.4 25.7
2018-Aug-15 23:00N 39°35' W 042°44'2 1.8 25.7
2018-Aug-15 22:00N 39°35' W 042°46'2 2.3 26.1
2018-Aug-15 21:00N 39°35' W 042°49'2 1.9 26.2
2018-Aug-15 20:00N 39°35' W 042°52'2 2.3 26.3
2018-Aug-15 19:00N 39°35' W 042°55'2 1.9 26.4
2018-Aug-15 18:00N 39°36' W 042°57'2 1.5 26.4
2018-Aug-15 17:00N 39°37' W 042°59'2 1.9 26.4
2018-Aug-15 16:00N 39°37' W 043°01'2 2.2 26.4
2018-Aug-15 15:00N 39°38' W 043°04'2 1.9 26.4
2018-Aug-15 14:00N 39°39' W 043°06'2 1.8 26.4
2018-Aug-15 13:00N 39°40' W 043°08'2 2.2 26.5
2018-Aug-15 12:00N 39°41' W 043°10'2 1.8 26.6
2018-Aug-15 11:00N 39°43' W 043°12'2 2.2 26.6
2018-Aug-15 10:00N 39°44' W 043°14'2 1.8 26.6
2018-Aug-15 09:00N 39°45' W 043°16'2 2.2 26.6
2018-Aug-15 08:00N 39°46' W 043°19'2 2.3 26.6
2018-Aug-15 07:00N 39°48' W 043°20'2 1.5 26.7
2018-Aug-15 06:00N 39°49' W 043°22'2 1.8 26.7
2018-Aug-15 05:00N 39°50' W 043°23'2 2.3 26.7
2018-Aug-15 04:00N 39°52' W 043°25'2 1.8 26.7
2018-Aug-15 03:00N 39°53' W 043°27'2 1.8 26.7
2018-Aug-15 02:00N 39°55' W 043°29'2 1.5 26.8
2018-Aug-15 01:00N 39°56' W 043°30'2 2.0 26.8
2018-Aug-15 00:00N 39°58' W 043°31'2 1.5 26.8
2018-Aug-14 23:00N 39°59' W 043°32'2 1.5 26.8
2018-Aug-14 22:00N 40°00' W 043°34'2 2.0 26.8
2018-Aug-14 21:00N 40°02' W 043°35'2 1.5 26.9
2018-Aug-14 20:00N 40°03' W 043°36'2 1.5 26.9
2018-Aug-14 19:00N 40°04' W 043°37'2 1.5 27.0
2018-Aug-14 18:00N 40°05' W 043°38'3 1.5 27.1
2018-Aug-14 16:00N 40°08' W 043°41'1 1.3 27.0
2018-Aug-14 15:00N 40°09' W 043°41'2 1.5 26.8
2018-Aug-14 14:00N 40°10' W 043°43'3 1.4 26.7
2018-Aug-14 12:00N 40°13' W 043°44'1 0.8 26.3
2018-Aug-14 11:00N 40°13' W 043°45'2 1.1 26.2
2018-Aug-14 09:00N 40°15' W 043°47'0 0.0 25.8
2018-Aug-14 08:00N 40°15' W 043°47'1 0.6 25.9
2018-Aug-14 07:00N 40°16' W 043°47'1 0.8 25.9
2018-Aug-14 06:00N 40°16' W 043°47'1 0.6 25.9
2018-Aug-14 05:00N 40°17' W 043°47'1 0.8 25.9
2018-Aug-14 04:00N 40°17' W 043°47'1 1.2 26.0
2018-Aug-14 03:00N 40°19' W 043°47'1 0.8 26.0
2018-Aug-14 02:00N 40°19' W 043°47'1 0.6 26.1
2018-Aug-14 01:00N 40°20' W 043°47'1 0.8 26.2
2018-Aug-14 00:00N 40°20' W 043°48'0 0.5 26.1
2018-Aug-13 23:00N 40°20' W 043°49'0 0.5 26.2
2018-Aug-13 22:00N 40°20' W 043°49'1 0.8 26.3
2018-Aug-13 21:00N 40°21' W 043°50'0 0.0 26.4
2018-Aug-13 20:00N 40°21' W 043°50'0 0.0 26.2
2018-Aug-13 19:00N 40°21' W 043°50'0 0.5 26.2
2018-Aug-13 18:00N 40°21' W 043°49'0 0.0 26.3
2018-Aug-13 17:00N 40°21' W 043°49'1 0.6 26.5
2018-Aug-13 16:00N 40°22' W 043°49'0 0.5 26.6
2018-Aug-13 15:00N 40°22' W 043°50'1 0.6 26.6
2018-Aug-13 14:00N 40°22' W 043°50'1 0.8 26.5
2018-Aug-13 13:00N 40°23' W 043°50'1 0.6 26.0
2018-Aug-13 12:00N 40°23' W 043°50'0 0.5 25.8
2018-Aug-13 11:00N 40°23' W 043°51'1 0.8 25.6
2018-Aug-13 10:00N 40°24' W 043°52'1 0.8 25.6
2018-Aug-13 09:00N 40°25' W 043°52'1 0.6 25.6
2018-Aug-13 08:00N 40°25' W 043°52'1 0.8 25.5
2018-Aug-13 07:00N 40°26' W 043°53'1 0.8 25.5
2018-Aug-13 06:00N 40°26' W 043°53'1 0.8 25.7
2018-Aug-13 05:00N 40°27' W 043°54'1 1.1 26.0
2018-Aug-13 04:00N 40°28' W 043°55'2 1.1 26.2
2018-Aug-13 02:00N 40°29' W 043°57'1 1.3 26.4
2018-Aug-13 01:00N 40°31' W 043°58'1 0.8 26.4
2018-Aug-13 00:00N 40°31' W 043°58'1 1.1 26.5
2018-Aug-12 23:00N 40°32' W 043°59'2 1.5 26.5
2018-Aug-12 22:00N 40°33' W 044°01'1 0.8 26.6
2018-Aug-12 21:00N 40°34' W 044°01'1 1.1 26.7
2018-Aug-12 20:00N 40°34' W 044°02'1 1.1 26.8
2018-Aug-12 19:00N 40°35' W 044°04'1 0.8 26.8
2018-Aug-12 18:00N 40°35' W 044°04'1 1.1 26.9
2018-Aug-12 17:00N 40°36' W 044°05'1 0.8 26.9
2018-Aug-12 16:00N 40°37' W 044°06'1 0.9 26.9
2018-Aug-12 15:00N 40°37' W 044°07'1 0.8 26.8
2018-Aug-12 14:00N 40°37' W 044°08'0 0.5 26.8
2018-Aug-12 13:00N 40°37' W 044°08'0 0.5 26.7
2018-Aug-12 12:00N 40°37' W 044°09'1 0.8 26.7
2018-Aug-12 11:00N 40°38' W 044°10'0 0.5 26.6
2018-Aug-12 10:00N 40°38' W 044°10'1 0.8 26.6
2018-Aug-12 09:00N 40°38' W 044°11'1 0.9 26.6
2018-Aug-12 08:00N 40°38' W 044°12'0 0.5 26.6
2018-Aug-12 07:00N 40°38' W 044°13'0 0.5 26.6
2018-Aug-12 06:00N 40°38' W 044°13'1 0.8 26.6
2018-Aug-12 05:00N 40°39' W 044°14'0 0.5 26.6
2018-Aug-12 04:00N 40°39' W 044°14'1 1.1 26.6
2018-Aug-12 03:00N 40°38' W 044°16'0 0.5 26.6
2018-Aug-12 02:00N 40°38' W 044°16'1 1.1 26.6
2018-Aug-12 01:00N 40°38' W 044°17'1 0.8 26.7
2018-Aug-12 00:00N 40°37' W 044°18'1 0.8 26.7
2018-Aug-11 23:00N 40°37' W 044°19'0 0.5 26.7
2018-Aug-11 22:00N 40°37' W 044°19'1 1.3 26.8
2018-Aug-11 21:00N 40°35' W 044°20'1 0.8 26.8
2018-Aug-11 20:00N 40°35' W 044°20'1 1.2 26.9
2018-Aug-11 19:00N 40°34' W 044°20'1 0.8 26.9
2018-Aug-11 18:00N 40°33' W 044°21'2 1.9 26.9
2018-Aug-11 17:00N 40°31' W 044°22'1 1.3 26.9
2018-Aug-11 16:00N 40°30' W 044°22'1 1.3 26.9
2018-Aug-11 15:00N 40°29' W 044°23'2 1.8 26.8
2018-Aug-11 14:00N 40°27' W 044°23'2 1.9 26.8
2018-Aug-11 13:00N 40°25' W 044°23'2 1.8 26.7
2018-Aug-11 12:00N 40°23' W 044°23'2 1.9 26.6
2018-Aug-11 11:00N 40°22' W 044°23'2 1.8 26.6
2018-Aug-11 10:00N 40°20' W 044°23'2 1.8 26.5
2018-Aug-11 09:00N 40°18' W 044°23'2 2.4 26.6
2018-Aug-11 08:00N 40°16' W 044°23'2 1.9 26.6
2018-Aug-11 07:00N 40°14' W 044°22'2 1.8 26.6
2018-Aug-11 06:00N 40°12' W 044°22'2 1.8 26.7
2018-Aug-11 05:00N 40°10' W 044°22'2 2.4 26.8
2018-Aug-11 04:00N 40°08' W 044°22'2 1.9 26.8
2018-Aug-11 03:00N 40°06' W 044°23'2 1.8 26.9
2018-Aug-11 02:00N 40°04' W 044°23'2 2.4 26.9
2018-Aug-11 01:00N 40°02' W 044°23'2 2.4 26.9
2018-Aug-11 00:00N 39°59' W 044°23'2 2.4 27.0
2018-Aug-10 23:00N 39°57' W 044°23'2 1.9 27.1
2018-Aug-10 22:00N 39°55' W 044°24'2 2.4 27.2
2018-Aug-10 21:00N 39°53' W 044°25'2 2.4 27.3
2018-Aug-10 20:00N 39°50' W 044°25'3 3.0 27.4
2018-Aug-10 19:00N 39°47' W 044°25'2 2.4 27.4
2018-Aug-10 18:00N 39°45' W 044°25'5 2.7 27.5
2018-Aug-10 16:00N 39°40' W 044°26'2 2.4 27.0
2018-Aug-10 15:00N 39°37' W 044°26'3 3.0 26.8
2018-Aug-10 14:00N 39°34' W 044°26'3 3.0 26.6
2018-Aug-10 13:00N 39°31' W 044°27'2 2.4 26.5
2018-Aug-10 12:00N 39°29' W 044°27'3 3.0 26.4
2018-Aug-10 11:00N 39°26' W 044°27'2 2.4 26.4
2018-Aug-10 10:00N 39°23' W 044°26'2 2.4 26.3
2018-Aug-10 09:00N 39°21' W 044°27'2 2.4 26.3
2018-Aug-10 08:00N 39°19' W 044°27'2 2.4 26.2
2018-Aug-10 07:00N 39°16' W 044°28'2 2.4 26.2
2018-Aug-10 06:00N 39°14' W 044°28'2 2.4 26.2
2018-Aug-10 05:00N 39°11' W 044°28'2 2.4 26.3
2018-Aug-10 04:00N 39°09' W 044°28'2 2.4 26.2
2018-Aug-10 03:00N 39°07' W 044°29'2 2.4 26.2
2018-Aug-10 02:00N 39°04' W 044°29'3 2.6 26.2
2018-Aug-10 01:00N 39°02' W 044°31'2 2.0 26.2
2018-Aug-10 00:00N 39°00' W 044°32'2 2.4 26.2
2018-Aug-09 23:00N 38°58' W 044°32'2 2.0 26.1
2018-Aug-09 22:00N 38°56' W 044°34'2 2.0 26.1
2018-Aug-09 21:00N 38°54' W 044°35'2 2.3 26.1
2018-Aug-09 20:00N 38°52' W 044°37'2 2.0 26.1
2018-Aug-09 19:00N 38°50' W 044°38'2 1.5 26.1
2018-Aug-09 18:00N 38°49' W 044°39'3 1.5 26.1
2018-Aug-09 16:00N 38°47' W 044°41'2 1.5 26.0
2018-Aug-09 15:00N 38°46' W 044°43'2 2.0 26.0
2018-Aug-09 14:00N 38°46' W 044°46'2 1.5 26.0
2018-Aug-09 13:00N 38°45' W 044°47'2 2.0 26.0
2018-Aug-09 12:00N 38°44' W 044°50'2 1.5 26.1
2018-Aug-09 11:00N 38°44' W 044°52'2 2.3 26.1
2018-Aug-09 10:00N 38°44' W 044°55'2 2.0 26.1
2018-Aug-09 09:00N 38°43' W 044°57'2 2.0 26.1
2018-Aug-09 08:00N 38°43' W 044°59'2 1.9 26.2
2018-Aug-09 07:00N 38°43' W 045°02'2 2.4 26.2
2018-Aug-09 06:00N 38°42' W 045°05'2 1.9 26.3
2018-Aug-09 05:00N 38°42' W 045°07'2 1.5 26.3
2018-Aug-09 04:00N 38°41' W 045°09'2 1.9 26.4
2018-Aug-09 03:00N 38°41' W 045°11'1 1.4 26.4
2018-Aug-09 02:00N 38°41' W 045°13'2 1.5 26.4
2018-Aug-09 01:00N 38°42' W 045°15'2 2.0 26.4
2018-Aug-09 00:00N 38°43' W 045°17'2 1.5 26.5
2018-Aug-08 23:00N 38°43' W 045°19'2 2.0 26.5
2018-Aug-08 22:00N 38°44' W 045°22'4 2.0 26.6
2018-Aug-08 20:00N 38°46' W 045°26'2 2.2 26.6
2018-Aug-08 19:00N 38°47' W 045°28'2 2.0 26.6
2018-Aug-08 18:00N 38°48' W 045°31'2 2.2 26.6
2018-Aug-08 17:00N 38°49' W 045°33'2 2.4 26.5
2018-Aug-08 16:00N 38°50' W 045°36'2 2.2 26.5
2018-Aug-08 15:00N 38°51' W 045°38'2 1.5 26.5
2018-Aug-08 14:00N 38°52' W 045°40'2 2.0 26.5
2018-Aug-08 13:00N 38°52' W 045°43'2 1.5 26.5
2018-Aug-08 12:00N 38°53' W 045°44'2 1.5 26.4
2018-Aug-08 11:00N 38°53' W 045°46'2 1.5 26.4
2018-Aug-08 10:00N 38°54' W 045°48'1 1.1 26.4
2018-Aug-08 09:00N 38°55' W 045°49'1 1.1 26.4
2018-Aug-08 08:00N 38°55' W 045°50'2 1.5 26.4
2018-Aug-08 07:00N 38°56' W 045°52'2 1.8 26.4
2018-Aug-08 06:00N 38°58' W 045°53'2 1.5 26.5
2018-Aug-08 05:00N 38°59' W 045°55'2 1.5 26.5
2018-Aug-08 04:00N 39°00' W 045°56'2 1.5 26.5
2018-Aug-08 03:00N 39°01' W 045°58'2 1.8 26.5
2018-Aug-08 02:00N 39°02' W 045°59'2 1.5 26.5
2018-Aug-08 01:00N 39°02' W 046°01'2 1.8 26.5
2018-Aug-08 00:00N 39°04' W 046°03'1 1.1 26.6
2018-Aug-07 23:00N 39°04' W 046°04'2 2.2 26.6
2018-Aug-07 22:00N 39°05' W 046°07'1 1.4 26.6
2018-Aug-07 21:00N 39°05' W 046°08'2 1.5 26.6
2018-Aug-07 20:00N 39°06' W 046°10'1 1.1 26.6
2018-Aug-07 19:00N 39°07' W 046°11'1 0.9 26.6
2018-Aug-07 18:00N 39°07' W 046°13'1 0.9 26.6
2018-Aug-07 17:00N 39°07' W 046°14'1 0.9 26.5
2018-Aug-07 16:00N 39°07' W 046°15'1 1.1 26.5
2018-Aug-07 15:00N 39°07' W 046°16'0 0.5 26.5
2018-Aug-07 14:00N 39°07' W 046°17'0 0.5 26.5
2018-Aug-07 13:00N 39°07' W 046°17'0 0.5 26.5
2018-Aug-07 12:00N 39°07' W 046°18'1 0.8 26.6
2018-Aug-07 11:00N 39°08' W 046°19'0 0.5 26.7
2018-Aug-07 10:00N 39°08' W 046°19'1 1.1 26.7
2018-Aug-07 09:00N 39°08' W 046°20'0 0.5 26.7
2018-Aug-07 08:00N 39°08' W 046°21'1 0.8 26.7
2018-Aug-07 07:00N 39°09' W 046°22'1 0.8 26.7
2018-Aug-07 06:00N 39°10' W 046°22'1 0.8 26.7
2018-Aug-07 05:00N 39°10' W 046°23'1 0.8 26.7
2018-Aug-07 04:00N 39°11' W 046°23'0 0.5 26.7
2018-Aug-07 03:00N 39°11' W 046°24'1 0.8 26.7
2018-Aug-07 02:00N 39°11' W 046°25'1 1.1 26.7
2018-Aug-07 01:00N 39°12' W 046°26'1 0.9 26.7
2018-Aug-07 00:00N 39°12' W 046°27'1 0.7 26.7
2018-Aug-06 22:00N 39°12' W 046°29'0 0.5 26.8
2018-Aug-06 21:00N 39°12' W 046°29'0 0.5 26.8
2018-Aug-06 20:00N 39°12' W 046°30'0 0.5 26.8
2018-Aug-06 19:00N 39°12' W 046°31'0 0.5 26.8
2018-Aug-06 18:00N 39°12' W 046°31'0 0.5 26.8
2018-Aug-06 17:00N 39°12' W 046°32'1 0.8 26.8
2018-Aug-06 16:00N 39°13' W 046°32'0 0.5 26.8
2018-Aug-06 15:00N 39°13' W 046°33'0 0.5 26.7
2018-Aug-06 14:00N 39°13' W 046°34'0 0.5 26.7
2018-Aug-06 13:00N 39°13' W 046°34'1 1.1 26.7
2018-Aug-06 12:00N 39°12' W 046°35'0 0.5 26.7
2018-Aug-06 11:00N 39°12' W 046°36'1 0.9 26.7
2018-Aug-06 10:00N 39°12' W 046°37'1 1.1 26.7
2018-Aug-06 09:00N 39°11' W 046°38'0 0.5 26.6
2018-Aug-06 08:00N 39°11' W 046°39'   26.6

Dump ship's entire track history